Terminal Aerodrome Forecast
Issued by NWS

Current Version | Previous Version | Text Only | Print | Product List | Glossary On
Versions: 1 2 3 4 5 6 7 8 9 10 11 12 13 14 15
000
FTUS43 KGRB 231131
TAFMTW
TAF
KMTW 231131Z 2312/2412 19005KT P6SM SKC
     FM231500 19012KT P6SM SCT200
     FM232100 18012KT P6SM SCT050 BKN100
     FM240100 18006KT P6SM SCT050 BKN100=

USA.gov is the U.S. government's official web portal to all federal, state and local government web resources and services.